Natures Way Challenger — WDF7294 — position and weather

sailwx.info

Track history (hours):
 
Tides and Currents Weather Stations Pressure Air Temp Water Temp Dewpoint Dewpoint Depression Visibility Wind Speed Wind Dir Waves Ship Positions

Natures Way Challenger

Owner: Natures Way Marine, LLC, Theodore, AL. More information available from US FCC via Universal Licensing System and Coast Guard Vessel Documentation Center.

Last reported at 2015-May-21 14:32 UTC. Time now 2015-May-22 19:10 UTC.
Position N 29°33' W 094°54'.

Length 14 m.

Type: Towing. MMSI: 367483050.

Date/timePositionNaut miles runAvg speedWind from/ knotsBaromVisibWave heightAir tempDewpointWater temp
2015-May-21 14:32N 29°33' W 094°54'5 4.8
2015-May-21 13:33N 29°37' W 094°57'5 5.0
2015-May-21 12:33N 29°41' W 094°59'4 4.1
2015-May-21 11:32N 29°44' W 095°03'4 3.8
2015-May-21 10:33N 29°44' W 095°07'3 2.6
2015-May-21 09:33N 29°45' W 095°10'1 0.5
2015-May-21 08:33N 29°45' W 095°11'0 0.1
2015-May-21 07:33N 29°45' W 095°11'0 0.2
2015-May-21 06:33N 29°45' W 095°10'1 0.6
2015-May-21 05:33N 29°45' W 095°10'4 3.5
2015-May-21 04:32N 29°46' W 095°06'3 3.3
2015-May-21 03:33N 29°44' W 095°09'1 0.2
2015-May-20 21:15N 29°45' W 095°10'0 0.1
2015-May-20 20:33N 29°45' W 095°11'4 3.6
2015-May-20 19:30N 29°45' W 095°06'5 5.0
2015-May-20 18:33N 29°43' W 095°01'6 5.9
2015-May-20 17:33N 29°38' W 094°58'9 7.3
2015-May-20 16:23N 29°30' W 094°52'2 0.2
2015-May-20 08:20N 29°32' W 094°54'4 5.3
2015-May-20 07:34N 29°35' W 094°56'6 5.8
2015-May-20 06:33N 29°41' W 094°59'7 5.7
2015-May-20 05:21N 29°46' W 095°05'4 5.3
2015-May-20 04:34N 29°44' W 095°09'2 1.7
2015-May-20 03:33N 29°45' W 095°11'0 0.1
2015-May-20 02:34N 29°45' W 095°11'0 0.0
2015-May-20 01:34N 29°45' W 095°11'0 0.0
2015-May-20 00:34N 29°45' W 095°11'0 0.0
2015-May-19 23:34N 29°45' W 095°11'0 0.0
2015-May-19 22:34N 29°45' W 095°11'0 0.0
2015-May-19 21:34N 29°45' W 095°11'1 0.5
2015-May-19 20:34N 29°45' W 095°10'0 0.0
2015-May-19 19:34N 29°45' W 095°10'0 0.0
2015-May-19 18:33N 29°45' W 095°10'0 0.0
2015-May-19 17:34N 29°45' W 095°10'0 0.0
2015-May-19 16:34N 29°45' W 095°10'1 0.7
2015-May-19 15:34N 29°45' W 095°10'1 1.0
2015-May-19 14:33N 29°44' W 095°09'3 2.9
2015-May-19 13:33N 29°46' W 095°06'2 1.8
2015-May-19 12:33N 29°45' W 095°04'5 5.0
2015-May-19 11:34N 29°42' W 095°00'5 5.1
2015-May-19 10:34N 29°37' W 094°58'5 5.0
2015-May-19 09:34N 29°33' W 094°55'  
2015-May-16 10:25N 29°32' W 090°51'3 3.3
2015-May-16 09:34N 29°32' W 090°47'3 3.0
2015-May-16 08:34N 29°34' W 090°45'3 3.1
2015-May-16 07:34N 29°36' W 090°43'1 0.6
2015-May-16 06:34N 29°37' W 090°42'0 0.0
2015-May-16 05:34N 29°37' W 090°42'2 1.6
2015-May-16 04:34N 29°36' W 090°41'3 3.2
2015-May-16 03:34N 29°35' W 090°37'3 3.2
2015-May-16 02:32N 29°34' W 090°34'30 2.9
2015-May-15 16:05N 29°49' W 090°04'1 0.7
2015-May-15 14:14N 29°51' W 090°04'1 1.6
2015-May-15 13:29N 29°50' W 090°04'0 0.0
2015-May-15 12:23N 29°50' W 090°04'0 0.0
2015-May-15 10:33N 29°50' W 090°04'8 2.2
2015-May-15 07:03N 29°55' W 089°57'0 0.0
2015-May-14 20:33N 29°55' W 089°58'2 1.0
2015-May-14 18:32N 29°54' W 089°60'5 2.3
2015-May-14 16:16N 29°50' W 090°04'1 1.1
2015-May-14 15:22N 29°51' W 090°04'3 4.0
2015-May-14 14:33N 29°54' W 090°05'1 1.2
2015-May-14 13:33N 29°55' W 090°05'2 0.1
2015-May-13 14:21N 29°55' W 090°07'3 4.1
2015-May-13 13:33N 29°56' W 090°04'3 2.9
2015-May-13 12:33N 29°56' W 090°01'3 0.2
2015-May-12 23:28N 29°55' W 089°58'36 1.6
2015-May-12 00:34N 29°34' W 090°32'4 3.6
2015-May-11 23:34N 29°35' W 090°36'4 3.6
2015-May-11 22:34N 29°36' W 090°40'3 2.3
2015-May-11 21:23N 29°35' W 090°43'3 3.3
2015-May-11 20:34N 29°33' W 090°45'4 3.8
2015-May-11 19:32N 29°32' W 090°49'  
Track history (hours):
 
Tides and Currents Weather Stations Pressure Air Temp Water Temp Dewpoint Dewpoint Depression Visibility Wind Speed Wind Dir Waves Ship Positions

Natures Way Challenger

Owner: Natures Way Marine, LLC, Theodore, AL. More information available from US FCC via Universal Licensing System and Coast Guard Vessel Documentation Center.

Last reported at 2015-May-21 14:32 UTC. Time now 2015-May-22 19:10 UTC.
Position N 29°33' W 094°54'.

Length 14 m.

Type: Towing. MMSI: 367483050.

Date/timePositionNaut miles runAvg speedWind from/ knotsBaromVisibWave heightAir tempDewpointWater temp
2015-May-21 14:32N 29°33' W 094°54'5 4.8
2015-May-21 13:33N 29°37' W 094°57'5 5.0
2015-May-21 12:33N 29°41' W 094°59'4 4.1
2015-May-21 11:32N 29°44' W 095°03'4 3.8
2015-May-21 10:33N 29°44' W 095°07'3 2.6
2015-May-21 09:33N 29°45' W 095°10'1 0.5
2015-May-21 08:33N 29°45' W 095°11'0 0.1
2015-May-21 07:33N 29°45' W 095°11'0 0.2
2015-May-21 06:33N 29°45' W 095°10'1 0.6
2015-May-21 05:33N 29°45' W 095°10'4 3.5
2015-May-21 04:32N 29°46' W 095°06'3 3.3
2015-May-21 03:33N 29°44' W 095°09'1 0.2
2015-May-20 21:15N 29°45' W 095°10'0 0.1
2015-May-20 20:33N 29°45' W 095°11'4 3.6
2015-May-20 19:30N 29°45' W 095°06'5 5.0
2015-May-20 18:33N 29°43' W 095°01'6 5.9
2015-May-20 17:33N 29°38' W 094°58'9 7.3
2015-May-20 16:23N 29°30' W 094°52'2 0.2
2015-May-20 08:20N 29°32' W 094°54'4 5.3
2015-May-20 07:34N 29°35' W 094°56'6 5.8
2015-May-20 06:33N 29°41' W 094°59'7 5.7
2015-May-20 05:21N 29°46' W 095°05'4 5.3
2015-May-20 04:34N 29°44' W 095°09'2 1.7
2015-May-20 03:33N 29°45' W 095°11'0 0.1
2015-May-20 02:34N 29°45' W 095°11'0 0.0
2015-May-20 01:34N 29°45' W 095°11'0 0.0
2015-May-20 00:34N 29°45' W 095°11'0 0.0
2015-May-19 23:34N 29°45' W 095°11'0 0.0
2015-May-19 22:34N 29°45' W 095°11'0 0.0
2015-May-19 21:34N 29°45' W 095°11'1 0.5
2015-May-19 20:34N 29°45' W 095°10'0 0.0
2015-May-19 19:34N 29°45' W 095°10'0 0.0
2015-May-19 18:33N 29°45' W 095°10'0 0.0
2015-May-19 17:34N 29°45' W 095°10'0 0.0
2015-May-19 16:34N 29°45' W 095°10'1 0.7
2015-May-19 15:34N 29°45' W 095°10'1 1.0
2015-May-19 14:33N 29°44' W 095°09'3 2.9
2015-May-19 13:33N 29°46' W 095°06'2 1.8
2015-May-19 12:33N 29°45' W 095°04'5 5.0
2015-May-19 11:34N 29°42' W 095°00'5 5.1
2015-May-19 10:34N 29°37' W 094°58'5 5.0
2015-May-19 09:34N 29°33' W 094°55'  
2015-May-16 10:25N 29°32' W 090°51'3 3.3
2015-May-16 09:34N 29°32' W 090°47'3 3.0
2015-May-16 08:34N 29°34' W 090°45'3 3.1
2015-May-16 07:34N 29°36' W 090°43'1 0.6
2015-May-16 06:34N 29°37' W 090°42'0 0.0
2015-May-16 05:34N 29°37' W 090°42'2 1.6
2015-May-16 04:34N 29°36' W 090°41'3 3.2
2015-May-16 03:34N 29°35' W 090°37'3 3.2
2015-May-16 02:32N 29°34' W 090°34'30 2.9
2015-May-15 16:05N 29°49' W 090°04'1 0.7
2015-May-15 14:14N 29°51' W 090°04'1 1.6
2015-May-15 13:29N 29°50' W 090°04'0 0.0
2015-May-15 12:23N 29°50' W 090°04'0 0.0
2015-May-15 10:33N 29°50' W 090°04'8 2.2
2015-May-15 07:03N 29°55' W 089°57'0 0.0
2015-May-14 20:33N 29°55' W 089°58'2 1.0
2015-May-14 18:32N 29°54' W 089°60'5 2.3
2015-May-14 16:16N 29°50' W 090°04'1 1.1
2015-May-14 15:22N 29°51' W 090°04'3 4.0
2015-May-14 14:33N 29°54' W 090°05'1 1.2
2015-May-14 13:33N 29°55' W 090°05'2 0.1
2015-May-13 14:21N 29°55' W 090°07'3 4.1
2015-May-13 13:33N 29°56' W 090°04'3 2.9
2015-May-13 12:33N 29°56' W 090°01'3 0.2
2015-May-12 23:28N 29°55' W 089°58'36 1.6
2015-May-12 00:34N 29°34' W 090°32'4 3.6
2015-May-11 23:34N 29°35' W 090°36'4 3.6
2015-May-11 22:34N 29°36' W 090°40'3 2.3
2015-May-11 21:23N 29°35' W 090°43'3 3.3
2015-May-11 20:34N 29°33' W 090°45'4 3.8
2015-May-11 19:32N 29°32' W 090°49'  

Dump ship's entire track history